Time;durP1;ratioP1;P1;durP2;ratioP2;P2;SDS_P1;SDS_P2;PMS_P1;PMS_P2;Temp;Humidity;BMP_temperature;BMP_pressure;BME280_temperature;BME280_humidity;BME280_pressure;Samples;Min_cycle;Max_cycle;Signal;HPM_P1;HPM_P2
2022/09/27 00:00:24;;;;;;;4.80;2.70;;;17.30;40.80;;;;;;5034298;28;20190;-43
2022/09/27 00:02:50;;;;;;;5.20;3.15;;;17.30;40.70;;;;;;5034168;28;20162;-42
2022/09/27 00:05:16;;;;;;;4.30;2.50;;;17.30;40.80;;;;;;5034221;28;20534;-42
2022/09/27 00:07:43;;;;;;;4.22;2.53;;;17.30;40.80;;;;;;5033662;28;20764;-43
2022/09/27 00:10:10;;;;;;;4.22;2.60;;;17.30;40.70;;;;;;5034109;28;20194;-43
2022/09/27 00:12:36;;;;;;;5.00;3.33;;;17.30;40.60;;;;;;5033938;28;20185;-42
2022/09/27 00:15:03;;;;;;;3.45;2.28;;;17.30;40.70;;;;;;5034076;28;20174;-43
2022/09/27 00:17:29;;;;;;;3.75;2.83;;;17.30;40.60;;;;;;5033245;28;20239;-43
2022/09/27 00:19:58;;;;;;;6.32;3.15;;;17.30;40.60;;;;;;5033871;28;20228;-44
2022/09/27 00:22:25;;;;;;;3.75;2.42;;;17.20;40.40;;;;;;5034223;28;20181;-42
2022/09/27 00:24:51;;;;;;;20.20;3.17;;;17.30;40.40;;;;;;5034143;28;20590;-42
2022/09/27 00:27:18;;;;;;;3.40;2.53;;;17.30;40.30;;;;;;5033267;28;20677;-43
2022/09/27 00:29:45;;;;;;;3.40;2.90;;;17.30;40.30;;;;;;5033738;28;20425;-43
2022/09/27 00:32:11;;;;;;;4.22;2.88;;;17.30;40.50;;;;;;5033702;28;20649;-43
2022/09/27 00:34:39;;;;;;;4.10;3.03;;;17.30;40.40;;;;;;5033763;28;20193;-43
2022/09/27 00:37:06;;;;;;;4.60;2.83;;;17.30;40.50;;;;;;5033027;28;20198;-43
2022/09/27 00:39:32;;;;;;;2.67;2.25;;;17.30;40.50;;;;;;5033591;28;20190;-44
2022/09/27 00:41:58;;;;;;;4.10;2.37;;;17.30;40.70;;;;;;5033589;28;20189;-43
2022/09/27 00:44:27;;;;;;;8.67;3.17;;;17.30;40.60;;;;;;5032607;28;20181;-44
2022/09/27 00:47:03;;;;;;;4.95;2.63;;;17.30;40.40;;;;;;5032794;28;20408;-43
2022/09/27 00:49:48;;;;;;;3.00;2.70;;;17.30;40.30;;;;;;5033457;28;20651;-43
2022/09/27 00:52:24;;;;;;;2.83;2.45;;;17.30;40.40;;;;;;5033133;28;20176;-44
2022/09/27 00:54:56;;;;;;;2.92;2.17;;;17.30;40.50;;;;;;5033484;28;20158;-43
2022/09/27 00:57:22;;;;;;;4.38;2.80;;;17.30;40.60;;;;;;5032621;28;20285;-43
2022/09/27 01:00:02;;;;;;;6.13;3.47;;;17.30;40.60;;;;;;5033089;28;20269;-43
2022/09/27 01:02:28;;;;;;;3.97;3.08;;;17.30;40.50;;;;;;5033154;28;20401;-43
2022/09/27 01:04:55;;;;;;;5.00;3.30;;;17.40;40.40;;;;;;5033102;28;20174;-44
2022/09/27 01:07:21;;;;;;;5.35;2.35;;;17.30;40.50;;;;;;5032418;28;20591;-43
2022/09/27 01:09:47;;;;;;;4.30;3.20;;;17.40;40.60;;;;;;5032957;28;20276;-43
2022/09/27 01:12:41;;;;;;;5.50;2.93;;;17.40;40.60;;;;;;5032984;28;20166;-43
2022/09/27 01:15:28;;;;;;;4.55;2.30;;;17.40;40.60;;;;;;5032815;28;20416;-43
2022/09/27 01:18:12;;;;;;;9.52;2.47;;;17.40;40.60;;;;;;5032439;28;20701;-43
2022/09/27 01:20:59;;;;;;;3.13;2.40;;;17.40;40.40;;;;;;5032700;28;20197;-43
2022/09/27 01:24:08;;;;;;;2.88;2.58;;;17.30;40.50;;;;;;5032782;28;20154;-43
2022/09/27 01:26:36;;;;;;;9.18;4.68;;;17.30;40.70;;;;;;5032197;28;20162;-44
2022/09/27 01:29:56;;;;;;;10.88;4.05;;;17.30;40.80;;;;;;5032690;28;20182;-43
2022/09/27 01:32:29;;;;;;;7.60;5.43;;;17.30;40.80;;;;;;4971447;28;20178;-44
2022/09/27 01:35:16;;;;;;;3.20;2.90;;;17.30;40.70;;;;;;4971650;28;20247;-43
2022/09/27 01:37:53;;;;;;;3.13;2.80;;;17.30;40.60;;;;;;4970819;28;20235;-43
2022/09/27 01:40:37;;;;;;;6.15;3.75;;;17.30;40.80;;;;;;4971541;28;20600;-43
2022/09/27 01:43:15;;;;;;;8.93;3.15;;;17.30;40.90;;;;;;4971347;28;20195;-43
2022/09/27 01:46:05;;;;;;;12.75;6.50;;;17.30;40.80;;;;;;4970764;28;20230;-43
2022/09/27 01:48:44;;;;;;;17.15;8.60;;;17.30;40.80;;;;;;4943961;28;20176;-43
2022/09/27 01:51:29;;;;;;;6.25;4.00;;;17.20;40.70;;;;;;4955312;28;20595;-44
2022/09/27 01:54:03;;;;;;;6.88;4.80;;;17.20;40.60;;;;;;4971319;28;20168;-43
2022/09/27 01:56:45;;;;;;;4.72;3.90;;;17.20;40.60;;;;;;4970470;28;20183;-43
2022/09/27 01:59:16;;;;;;;7.57;3.58;;;17.20;40.70;;;;;;4971081;28;20254;-43
2022/09/27 02:01:47;;;;;;;6.15;3.60;;;17.20;40.90;;;;;;4972202;28;20180;-44
2022/09/27 02:04:18;;;;;;;3.58;3.25;;;17.20;40.90;;;;;;5032243;28;20606;-43
2022/09/27 02:06:48;;;;;;;2.63;2.22;;;17.20;40.70;;;;;;5031634;28;20232;-43
2022/09/27 02:09:17;;;;;;;3.17;2.25;;;17.20;40.60;;;;;;5032005;28;20281;-43
2022/09/27 02:11:51;;;;;;;4.60;2.70;;;17.20;40.50;;;;;;5032040;28;20650;-43
2022/09/27 02:14:37;;;;;;;3.58;2.40;;;17.20;40.70;;;;;;5032047;28;20606;-43
2022/09/27 02:17:19;;;;;;;3.40;2.50;;;17.10;40.50;;;;;;5030996;28;20268;-43
2022/09/27 02:19:59;;;;;;;2.85;2.28;;;17.10;40.60;;;;;;5031991;28;20240;-43
2022/09/27 02:22:47;;;;;;;2.53;2.00;;;17.10;40.50;;;;;;5031976;28;20192;-43
2022/09/27 02:25:41;;;;;;;2.80;2.20;;;17.10;40.40;;;;;;5023793;28;20237;-44
2022/09/27 02:28:25;;;;;;;2.35;1.98;;;17.10;40.60;;;;;;5031913;28;20660;-43
2022/09/27 02:30:51;;;;;;;2.55;2.10;;;17.20;40.50;;;;;;5031824;28;20732;-42
2022/09/27 02:33:25;;;;;;;3.78;2.60;;;17.10;40.40;;;;;;5044392;23;20174;-45
2022/09/27 02:35:51;;;;;;;2.42;2.00;;;17.20;40.50;;;;;;4991962;28;20183;-43
2022/09/27 02:38:18;;;;;;;2.47;2.20;;;17.20;40.50;;;;;;4992385;28;20206;-43
2022/09/27 02:40:45;;;;;;;3.78;2.83;;;17.20;40.60;;;;;;4992487;28;20175;-43
2022/09/27 02:43:14;;;;;;;4.75;3.65;;;17.20;40.60;;;;;;4992379;28;20639;-43
2022/09/27 02:45:50;;;;;;;3.97;3.05;;;17.20;40.60;;;;;;4992150;28;20222;-43
2022/09/27 02:48:41;;;;;;;3.55;3.25;;;17.30;40.60;;;;;;4992511;28;20399;-43
2022/09/27 02:51:15;;;;;;;3.53;2.90;;;17.30;40.60;;;;;;4992482;28;20160;-43
2022/09/27 02:53:55;;;;;;;9.30;4.65;;;17.30;40.80;;;;;;4992310;28;20199;-43
2022/09/27 02:56:44;;;;;;;19.42;9.30;;;17.30;40.80;;;;;;4992041;28;20666;-43
2022/09/27 02:59:31;;;;;;;10.00;7.18;;;17.30;40.70;;;;;;4992559;28;20218;-43
2022/09/27 03:02:17;;;;;;;6.28;5.05;;;17.20;40.70;;;;;;4992344;28;20170;-43
2022/09/27 03:04:48;;;;;;;4.45;3.80;;;17.30;40.90;;;;;;4992220;28;20203;-43
2022/09/27 03:07:15;;;;;;;3.55;2.65;;;17.20;40.90;;;;;;4993044;28;20642;-43
2022/09/27 03:09:47;;;;;;;3.50;3.20;;;17.20;40.90;;;;;;4995967;28;20206;-43
2022/09/27 03:12:13;;;;;;;4.90;3.40;;;17.20;41.00;;;;;;4995888;28;20155;-43
2022/09/27 03:14:39;;;;;;;8.13;2.92;;;17.20;41.10;;;;;;4995693;28;20210;-43
2022/09/27 03:17:05;;;;;;;3.90;3.10;;;17.20;41.10;;;;;;4995470;28;20174;-42
2022/09/27 03:19:31;;;;;;;6.25;3.40;;;17.20;41.30;;;;;;4995801;28;20434;-43
2022/09/27 03:21:57;;;;;;;3.15;2.72;;;17.20;41.70;;;;;;4995918;28;20306;-43
2022/09/27 03:24:23;;;;;;;7.80;3.20;;;17.10;41.70;;;;;;4995648;28;20269;-43
2022/09/27 03:26:49;;;;;;;6.00;3.60;;;17.20;41.80;;;;;;4995297;28;20414;-43
2022/09/27 03:29:15;;;;;;;5.00;3.57;;;17.10;42.60;;;;;;4995622;28;20182;-43
2022/09/27 03:31:41;;;;;;;4.85;4.25;;;17.10;42.40;;;;;;4995417;28;20437;-43
2022/09/27 03:34:07;;;;;;;4.47;3.80;;;17.10;42.90;;;;;;4995233;28;20564;-43
2022/09/27 03:36:33;;;;;;;4.50;4.10;;;17.00;42.90;;;;;;4995363;28;20407;-43
2022/09/27 03:38:59;;;;;;;4.10;3.50;;;17.00;43.10;;;;;;4995268;28;20207;-43
2022/09/27 03:41:24;;;;;;;5.70;4.33;;;17.00;43.40;;;;;;4995360;28;20168;-43
2022/09/27 03:43:50;;;;;;;6.70;4.37;;;17.00;43.10;;;;;;4995278;28;20221;-43
2022/09/27 03:46:16;;;;;;;7.73;3.90;;;17.00;43.40;;;;;;4994870;28;20183;-43
2022/09/27 03:48:42;;;;;;;5.60;3.93;;;16.90;43.90;;;;;;4995509;28;20402;-43
2022/09/27 03:51:11;;;;;;;5.00;4.50;;;16.90;44.00;;;;;;4995226;28;20207;-43
2022/09/27 03:53:37;;;;;;;5.45;4.90;;;16.90;44.10;;;;;;4995301;28;20431;-43
2022/09/27 03:56:03;;;;;;;6.40;4.05;;;16.90;44.60;;;;;;4994723;28;20183;-43
2022/09/27 03:58:29;;;;;;;4.47;4.07;;;16.80;44.30;;;;;;4994982;28;20223;-43
2022/09/27 04:00:54;;;;;;;7.97;3.57;;;16.90;44.50;;;;;;4995218;28;20206;-43
2022/09/27 04:03:20;;;;;;;6.20;4.03;;;16.80;44.50;;;;;;4995146;28;20430;-43
2022/09/27 04:05:46;;;;;;;5.20;3.80;;;16.90;44.80;;;;;;4994585;28;20409;-43
2022/09/27 04:08:12;;;;;;;5.77;4.43;;;16.80;44.80;;;;;;4994670;28;20222;-42
2022/09/27 04:10:38;;;;;;;5.10;4.40;;;16.80;44.70;;;;;;4994780;28;20172;-43
2022/09/27 04:13:04;;;;;;;5.80;5.10;;;16.80;45.00;;;;;;4994882;28;20179;-43
2022/09/27 04:15:30;;;;;;;5.85;4.90;;;16.70;45.60;;;;;;4994685;28;20176;-45
2022/09/27 04:17:56;;;;;;;3.93;3.40;;;16.70;45.70;;;;;;4994707;28;20540;-43
2022/09/27 04:20:22;;;;;;;5.27;4.60;;;16.70;45.50;;;;;;4994608;28;20488;-43
2022/09/27 04:22:48;;;;;;;6.77;5.43;;;16.70;45.60;;;;;;4994616;28;20175;-43
2022/09/27 04:25:13;;;;;;;5.27;4.80;;;16.70;45.60;;;;;;4994383;28;20191;-43
2022/09/27 04:27:44;;;;;;;5.13;4.00;;;16.70;45.60;;;;;;4994264;28;20172;-43
2022/09/27 04:30:10;;;;;;;5.20;4.70;;;16.70;45.90;;;;;;4994464;28;20163;-43
2022/09/27 04:32:43;;;;;;;7.85;5.40;;;16.70;46.60;;;;;;4994689;28;20215;-43
2022/09/27 04:37:55;;;;;;;6.10;5.45;;;16.60;46.30;;;;;;4994359;28;20214;-43
2022/09/27 04:40:21;;;;;;;6.20;5.60;;;16.60;46.40;;;;;;4994220;28;20635;-43
2022/09/27 04:42:48;;;;;;;6.27;5.33;;;16.60;46.50;;;;;;4994216;28;20484;-43
2022/09/27 04:45:14;;;;;;;6.10;5.60;;;16.60;46.40;;;;;;4994068;28;20430;-43
2022/09/27 04:47:44;;;;;;;4.93;4.43;;;16.60;46.70;;;;;;4994109;28;20206;-42
2022/09/27 04:50:10;;;;;;;6.53;5.20;;;16.70;46.70;;;;;;4994046;28;20241;-43
2022/09/27 04:52:36;;;;;;;6.55;5.80;;;16.70;46.50;;;;;;4994004;28;20171;-43
2022/09/27 04:55:02;;;;;;;8.23;5.27;;;16.70;46.50;;;;;;4993788;28;20290;-43
2022/09/27 04:57:28;;;;;;;8.55;6.45;;;16.70;46.50;;;;;;4993561;28;20516;-43
2022/09/27 04:59:54;;;;;;;5.90;5.30;;;16.70;46.60;;;;;;4993804;28;20171;-43
2022/09/27 05:02:19;;;;;;;8.00;6.37;;;16.70;46.70;;;;;;4993872;28;20171;-43
2022/09/27 05:04:45;;;;;;;6.27;5.67;;;16.60;47.10;;;;;;4993653;28;20191;-43
2022/09/27 05:07:11;;;;;;;7.10;5.60;;;16.60;46.90;;;;;;4993423;28;20175;-43
2022/09/27 05:09:37;;;;;;;7.50;6.80;;;16.60;47.00;;;;;;4993677;28;20191;-42
2022/09/27 05:12:06;;;;;;;7.13;6.53;;;16.60;46.80;;;;;;4993712;28;20182;-43
2022/09/27 05:14:32;;;;;;;6.97;6.32;;;16.60;46.90;;;;;;4993677;28;20265;-43
2022/09/27 05:16:57;;;;;;;8.00;6.53;;;16.60;47.40;;;;;;4993100;28;20660;-43
2022/09/27 05:19:23;;;;;;;6.90;6.20;;;16.60;47.10;;;;;;4993650;28;20223;-42
2022/09/27 05:21:49;;;;;;;6.37;5.70;;;16.50;47.30;;;;;;4993499;28;20527;-42
2022/09/27 05:24:15;;;;;;;6.85;5.95;;;16.50;47.30;;;;;;4993207;28;20200;-42
2022/09/27 05:26:41;;;;;;;7.50;6.13;;;16.60;47.40;;;;;;4993144;28;20171;-43
2022/09/27 05:29:07;;;;;;;6.85;6.25;;;16.60;47.50;;;;;;4993359;28;20411;-43
2022/09/27 05:31:33;;;;;;;6.83;6.13;;;16.60;47.50;;;;;;4993190;28;20186;-43
2022/09/27 05:33:58;;;;;;;8.20;7.50;;;16.60;47.70;;;;;;4975616;28;20222;-43
2022/09/27 05:36:24;;;;;;;5.60;5.00;;;16.60;47.30;;;;;;4993122;28;20179;-43
2022/09/27 05:38:50;;;;;;;6.73;6.07;;;16.70;47.30;;;;;;4993300;28;20198;-43
2022/09/27 05:41:16;;;;;;;7.17;6.17;;;16.70;47.50;;;;;;4993179;28;20434;-42
2022/09/27 05:43:42;;;;;;;6.63;5.50;;;16.70;47.40;;;;;;4993154;28;20195;-43
2022/09/27 05:46:08;;;;;;;6.63;5.93;;;16.70;47.50;;;;;;4992890;28;20195;-43
2022/09/27 05:48:34;;;;;;;5.30;4.80;;;16.70;47.50;;;;;;4993221;28;20250;-43
2022/09/27 05:50:59;;;;;;;9.47;6.90;;;16.70;47.50;;;;;;4993035;28;20199;-42
2022/09/27 05:53:25;;;;;;;6.70;6.10;;;16.70;47.60;;;;;;4992801;28;20203;-43
2022/09/27 05:55:51;;;;;;;7.70;6.90;;;16.70;47.40;;;;;;4992653;28;20174;-43
2022/09/27 05:58:17;;;;;;;6.87;6.17;;;16.70;47.50;;;;;;4992875;28;20191;-42
2022/09/27 06:00:43;;;;;;;10.53;7.60;;;16.70;47.40;;;;;;4992853;28;20167;-43
2022/09/27 06:03:11;;;;;;;8.77;7.97;;;16.70;47.50;;;;;;4992701;28;20167;-43
2022/09/27 06:05:38;;;;;;;7.93;7.13;;;16.70;47.50;;;;;;4992601;28;20283;-42
2022/09/27 06:08:09;;;;;;;10.43;6.10;;;16.70;47.40;;;;;;4992738;28;20175;-42
2022/09/27 06:10:36;;;;;;;7.95;7.13;;;16.80;47.50;;;;;;4992793;28;20193;-43
2022/09/27 06:13:14;;;;;;;7.97;7.28;;;16.70;47.30;;;;;;4993048;28;20179;-42
2022/09/27 06:15:41;;;;;;;9.93;7.60;;;16.80;47.30;;;;;;4992629;28;20714;-43
2022/09/27 06:18:10;;;;;;;10.55;6.55;;;16.80;47.50;;;;;;4992569;28;20191;-43
2022/09/27 06:20:37;;;;;;;8.55;7.18;;;16.80;47.80;;;;;;4992904;28;20179;-42
2022/09/27 06:23:14;;;;;;;7.95;7.15;;;16.70;47.90;;;;;;4992593;28;20634;-42
2022/09/27 06:25:41;;;;;;;7.88;6.95;;;16.70;48.10;;;;;;4992412;28;20171;-42
2022/09/27 06:28:08;;;;;;;7.40;6.70;;;16.70;48.00;;;;;;4992719;28;20186;-43
2022/09/27 06:30:38;;;;;;;7.15;6.55;;;16.70;48.10;;;;;;4992808;28;20183;-43
2022/09/27 06:33:04;;;;;;;9.50;8.30;;;16.70;48.10;;;;;;4992638;28;20167;-43
2022/09/27 06:35:30;;;;;;;7.57;6.90;;;16.70;48.20;;;;;;4992162;28;20210;-43
2022/09/27 06:37:56;;;;;;;8.38;7.47;;;16.70;48.10;;;;;;4974919;28;20235;-43
2022/09/27 06:40:25;;;;;;;10.20;8.05;;;16.80;48.00;;;;;;4992545;28;20186;-43
2022/09/27 06:42:52;;;;;;;8.07;6.75;;;16.80;48.00;;;;;;4994526;28;20171;-43
2022/09/27 06:45:17;;;;;;;8.98;8.13;;;16.80;47.80;;;;;;4996184;28;20195;-43
2022/09/27 06:47:43;;;;;;;8.00;7.40;;;16.80;48.10;;;;;;4996345;28;20171;-43
2022/09/27 06:50:11;;;;;;;8.77;7.90;;;16.80;48.10;;;;;;4996304;28;20167;-43
2022/09/27 06:52:37;;;;;;;9.75;8.85;;;16.80;49.00;;;;;;4996299;28;20202;-43
2022/09/27 06:55:04;;;;;;;7.50;6.80;;;16.90;48.20;;;;;;4996197;28;20698;-42
2022/09/27 07:00:25;;;;;;;8.73;7.82;;;17.00;48.10;;;;;;4996190;28;20171;-42
2022/09/27 07:02:52;;;;;;;8.85;8.05;;;17.10;48.20;;;;;;4996309;28;20238;-42
2022/09/27 07:05:18;;;;;;;8.30;7.50;;;17.10;48.20;;;;;;4995857;28;20795;-43
2022/09/27 07:07:45;;;;;;;8.30;7.60;;;17.10;48.40;;;;;;4995639;28;20171;-43
2022/09/27 07:10:11;;;;;;;9.52;8.73;;;17.10;48.50;;;;;;4995955;28;20258;-43
2022/09/27 07:12:37;;;;;;;7.90;7.07;;;17.10;48.40;;;;;;4995892;28;20627;-43
2022/09/27 07:15:04;;;;;;;8.80;8.02;;;17.10;48.30;;;;;;4996179;28;20429;-43
2022/09/27 07:17:29;;;;;;;12.00;7.55;;;17.20;48.40;;;;;;4995587;28;20199;-43
2022/09/27 07:19:55;;;;;;;9.10;8.30;;;17.20;48.30;;;;;;4995762;28;20194;-43
2022/09/27 07:22:22;;;;;;;11.77;10.67;;;17.20;48.40;;;;;;4996362;28;20183;-43
2022/09/27 07:24:47;;;;;;;9.65;8.35;;;17.30;48.40;;;;;;4995741;28;20509;-43
2022/09/27 07:27:14;;;;;;;9.67;8.70;;;17.30;48.30;;;;;;4995754;28;20250;-42
2022/09/27 07:29:40;;;;;;;9.60;8.68;;;17.30;48.40;;;;;;4995992;28;20183;-43
2022/09/27 07:32:06;;;;;;;9.02;8.18;;;17.40;48.40;;;;;;4995817;28;20202;-43
2022/09/27 07:34:34;;;;;;;9.45;8.55;;;17.50;48.60;;;;;;4995375;28;20210;-43
2022/09/27 07:37:02;;;;;;;14.73;9.10;;;17.50;48.60;;;;;;4995147;28;20175;-43
2022/09/27 07:39:27;;;;;;;10.02;8.60;;;17.50;48.60;;;;;;4995221;28;20184;-43
2022/09/27 07:41:53;;;;;;;9.00;8.00;;;17.60;48.40;;;;;;4995395;28;20230;-43
2022/09/27 07:44:19;;;;;;;10.07;9.07;;;17.70;48.50;;;;;;4995228;28;20278;-43
2022/09/27 07:46:45;;;;;;;10.90;7.70;;;17.60;48.40;;;;;;4995091;28;20505;-43
2022/09/27 07:49:11;;;;;;;10.25;6.85;;;17.60;48.10;;;;;;4995474;28;20175;-43
2022/09/27 07:51:37;;;;;;;8.50;7.70;;;17.60;48.10;;;;;;4995099;28;20574;-43
2022/09/27 07:54:03;;;;;;;9.33;8.23;;;17.60;48.50;;;;;;4994641;28;20426;-42
2022/09/27 07:56:29;;;;;;;9.80;7.13;;;17.70;48.40;;;;;;4994869;28;20206;-43
2022/09/27 07:58:55;;;;;;;8.45;7.55;;;17.70;48.10;;;;;;4994902;28;20450;-43
2022/09/27 08:01:21;;;;;;;15.17;13.67;;;17.70;48.30;;;;;;4995146;28;20171;-43
2022/09/27 08:03:47;;;;;;;8.30;7.50;;;17.70;48.50;;;;;;4994894;28;20210;-43
2022/09/27 08:06:13;;;;;;;8.67;7.77;;;17.70;47.60;;;;;;4994696;28;20652;-43
2022/09/27 08:08:38;;;;;;;6.35;5.72;;;17.60;47.60;;;;;;4994824;28;20185;-43
2022/09/27 08:11:31;;;;;;;7.33;6.73;;;17.60;47.60;;;;;;4994857;28;20333;-43
2022/09/27 08:13:56;;;;;;;6.32;5.55;;;17.60;47.60;;;;;;4990271;28;20206;-43
2022/09/27 08:16:22;;;;;;;6.73;6.13;;;17.60;47.60;;;;;;4994476;28;20168;-42
2022/09/27 08:18:48;;;;;;;6.47;5.93;;;17.60;47.80;;;;;;4994702;28;20261;-43
2022/09/27 08:21:14;;;;;;;3.33;2.87;;;17.60;47.90;;;;;;4994560;28;20407;-43
2022/09/27 08:23:41;;;;;;;2.13;1.45;;;17.60;46.20;;;;;;4994452;28;20270;-43
2022/09/27 08:26:07;;;;;;;1.80;1.10;;;17.60;45.90;;;;;;4994422;28;20179;-43
2022/09/27 08:28:33;;;;;;;2.13;1.50;;;17.60;45.90;;;;;;4994561;28;20251;-42
2022/09/27 08:30:59;;;;;;;1.83;1.30;;;18.50;46.00;;;;;;4994568;28;20186;-43
2022/09/27 08:33:25;;;;;;;1.92;1.35;;;17.60;45.20;;;;;;4994293;28;20218;-43
2022/09/27 08:35:51;;;;;;;3.05;1.40;;;17.60;45.20;;;;;;4994279;28;20254;-43
2022/09/27 08:38:17;;;;;;;1.50;1.33;;;17.60;45.20;;;;;;4994250;28;20202;-43
2022/09/27 08:41:24;;;;;;;1.73;1.23;;;17.70;45.10;;;;;;4994363;28;20194;-43
2022/09/27 08:44:16;;;;;;;1.80;1.13;;;17.80;45.50;;;;;;4994232;28;20222;-43
2022/09/27 08:46:52;;;;;;;1.80;1.20;;;17.90;45.60;;;;;;4994054;28;20197;-42
2022/09/27 08:49:26;;;;;;;2.15;1.40;;;17.90;45.10;;;;;;4994178;28;20182;-43
2022/09/27 08:51:53;;;;;;;1.60;1.20;;;18.00;44.70;;;;;;4994123;28;20190;-43
2022/09/27 08:54:24;;;;;;;1.67;1.13;;;18.00;44.60;;;;;;4994240;28;20200;-43
2022/09/27 08:57:03;;;;;;;1.55;0.95;;;18.00;43.40;;;;;;4993995;28;20527;-43
2022/09/27 08:59:37;;;;;;;1.40;0.75;;;18.10;44.40;;;;;;4994119;28;20187;-43
2022/09/27 09:02:10;;;;;;;1.55;0.85;;;18.10;44.70;;;;;;4993983;28;20175;-43
2022/09/27 09:04:39;;;;;;;1.30;0.73;;;18.20;43.90;;;;;;4993144;28;20196;-43
2022/09/27 09:07:23;;;;;;;1.58;0.98;;;18.20;43.90;;;;;;4993358;28;20163;-43
2022/09/27 09:10:10;;;;;;;4.05;1.10;;;18.30;44.50;;;;;;4993723;28;20220;-43
2022/09/27 09:12:48;;;;;;;2.10;0.70;;;18.40;44.20;;;;;;4993841;28;20687;-43
2022/09/27 09:15:53;;;;;;;1.35;0.95;;;18.40;44.20;;;;;;4993426;28;20245;-43
2022/09/27 09:18:42;;;;;;;1.20;0.57;;;18.50;44.00;;;;;;4993439;28;20225;-43
2022/09/27 09:21:30;;;;;;;1.42;0.82;;;18.40;40.20;;;;;;4948092;28;20183;-43
2022/09/27 09:24:08;;;;;;;1.73;0.93;;;18.30;41.90;;;;;;4978624;28;20199;-43
2022/09/27 09:26:42;;;;;;;1.45;1.00;;;18.20;42.60;;;;;;4975731;28;20234;-44
2022/09/27 09:29:21;;;;;;;1.23;0.60;;;18.20;43.20;;;;;;4993469;28;20628;-43
2022/09/27 09:32:24;;;;;;;1.25;0.65;;;18.20;42.70;;;;;;4993490;28;20735;-43
2022/09/27 09:35:10;;;;;;;1.50;0.90;;;18.20;43.20;;;;;;4947737;28;20226;-43
2022/09/27 09:37:56;;;;;;;1.45;0.98;;;18.20;43.70;;;;;;4992981;28;20249;-43
2022/09/27 09:40:37;;;;;;;1.60;0.90;;;18.30;43.20;;;;;;4993076;28;20166;-43
2022/09/27 09:43:27;;;;;;;1.80;1.00;;;18.30;43.10;;;;;;4993288;28;20183;-43
2022/09/27 09:46:13;;;;;;;1.30;0.50;;;18.40;42.10;;;;;;4966528;23;20693;-42
2022/09/27 09:48:48;;;;;;;1.98;0.80;;;18.30;42.40;;;;;;4993188;28;20198;-42
2022/09/27 09:51:27;;;;;;;1.67;1.15;;;18.10;40.80;;;;;;4993036;28;20293;-42
2022/09/27 09:54:14;;;;;;;2.63;0.70;;;18.20;42.10;;;;;;4993342;28;20563;-42
2022/09/27 09:56:48;;;;;;;1.73;0.75;;;18.20;42.60;;;;;;4992514;28;20206;-42
2022/09/27 09:59:26;;;;;;;1.35;0.57;;;18.10;41.30;;;;;;4992866;28;20229;-42
2022/09/27 10:01:57;;;;;;;2.30;0.82;;;18.10;42.00;;;;;;4992903;28;20202;-42
2022/09/27 10:04:31;;;;;;;1.30;0.75;;;18.10;42.00;;;;;;4992884;28;20749;-42
2022/09/27 10:07:00;;;;;;;4.00;0.80;;;18.20;42.30;;;;;;4992385;28;20217;-42
2022/09/27 10:09:27;;;;;;;1.38;0.95;;;18.30;42.80;;;;;;4992839;28;20598;-42
2022/09/27 10:11:53;;;;;;;1.30;0.60;;;18.40;42.00;;;;;;4992773;28;20179;-42
2022/09/27 10:14:21;;;;;;;1.17;0.70;;;18.40;41.70;;;;;;4992629;28;20266;-42
2022/09/27 10:16:54;;;;;;;1.45;0.82;;;18.50;41.10;;;;;;4992517;28;20195;-42
2022/09/27 10:19:29;;;;;;;2.88;1.00;;;18.60;41.10;;;;;;4992595;28;20241;-42
2022/09/27 10:22:09;;;;;;;5.13;0.80;;;18.70;40.60;;;;;;4992758;28;20179;-42
2022/09/27 10:24:55;;;;;;;2.45;0.70;;;18.70;40.60;;;;;;4992707;28;20155;-42
2022/09/27 10:27:24;;;;;;;1.45;1.17;;;18.60;39.80;;;;;;4992233;28;20168;-42
2022/09/27 10:29:56;;;;;;;2.70;0.90;;;18.60;40.00;;;;;;4992831;28;20520;-42
2022/09/27 10:32:34;;;;;;;2.05;1.13;;;18.60;40.10;;;;;;4992602;28;20255;-42
2022/09/27 10:35:20;;;;;;;1.70;1.00;;;18.50;39.80;;;;;;4992549;28;20655;-42
2022/09/27 10:37:46;;;;;;;1.30;0.70;;;18.50;40.50;;;;;;4992125;28;20198;-42
2022/09/27 10:40:38;;;;;;;2.05;0.82;;;18.40;40.50;;;;;;4992617;28;20188;-42
2022/09/27 10:43:29;;;;;;;1.10;0.70;;;18.30;39.20;;;;;;4989724;28;20219;-42
2022/09/27 10:46:30;;;;;;;1.05;0.60;;;18.00;39.10;;;;;;4991842;28;20697;-42
2022/09/27 10:49:29;;;;;;;1.30;0.80;;;17.80;39.20;;;;;;4992545;28;20162;-42
2022/09/27 10:52:02;;;;;;;1.35;0.75;;;17.70;39.20;;;;;;4960274;28;20278;-42
2022/09/27 10:54:36;;;;;;;1.40;0.77;;;17.50;39.80;;;;;;4992407;28;20656;-42
2022/09/27 10:57:12;;;;;;;1.20;0.80;;;17.40;39.80;;;;;;4992299;28;20212;-42
2022/09/27 10:59:41;;;;;;;1.10;0.70;;;17.40;39.90;;;;;;4992381;28;20167;-42
2022/09/27 11:02:38;;;;;;;1.73;1.23;;;17.40;40.10;;;;;;4992262;28;20168;-42
2022/09/27 11:05:26;;;;;;;1.50;0.95;;;17.50;40.50;;;;;;4980228;28;20599;-42
2022/09/27 11:08:02;;;;;;;1.10;0.55;;;17.40;40.80;;;;;;4991208;28;20148;-42
2022/09/27 11:10:31;;;;;;;1.48;0.68;;;17.40;41.00;;;;;;4992173;28;20179;-42
2022/09/27 11:13:07;;;;;;;1.40;0.95;;;17.40;41.70;;;;;;4992180;28;20176;-42
2022/09/27 11:15:58;;;;;;;1.27;0.88;;;17.40;40.80;;;;;;4991671;28;20203;-42
2022/09/27 11:18:33;;;;;;;1.30;0.90;;;17.30;41.40;;;;;;4992124;28;20227;-42
2022/09/27 11:21:19;;;;;;;1.25;0.77;;;17.40;41.50;;;;;;4992104;28;20270;-42
2022/09/27 11:24:24;;;;;;;1.42;0.73;;;17.50;41.60;;;;;;4991860;28;20262;-42
2022/09/27 11:27:24;;;;;;;1.13;0.75;;;17.40;40.90;;;;;;4991689;28;20610;-42
2022/09/27 11:30:11;;;;;;;1.75;0.90;;;17.50;40.90;;;;;;4995595;28;20167;-42
2022/09/27 11:32:46;;;;;;;4.53;0.80;;;17.40;40.90;;;;;;4995816;28;20159;-42
2022/09/27 11:35:14;;;;;;;1.40;0.63;;;17.50;42.30;;;;;;4995414;28;20171;-42
2022/09/27 11:38:05;;;;;;;1.85;0.73;;;17.50;40.60;;;;;;4994830;28;20286;-42
2022/09/27 11:40:53;;;;;;;2.17;0.70;;;17.40;41.00;;;;;;4995509;28;20175;-41
2022/09/27 11:44:10;;;;;;;1.10;0.63;;;17.40;41.00;;;;;;4994722;28;20186;-42
2022/09/27 11:46:38;;;;;;;1.25;0.73;;;17.40;40.70;;;;;;4969183;28;20211;-42
2022/09/27 11:49:16;;;;;;;1.13;0.57;;;17.40;41.00;;;;;;4995333;28;20205;-42
2022/09/27 11:52:11;;;;;;;1.40;0.60;;;17.40;41.00;;;;;;4995239;28;20689;-42
2022/09/27 11:55:13;;;;;;;1.00;0.50;;;17.30;40.60;;;;;;4995246;28;20279;-42
2022/09/27 11:57:46;;;;;;;1.77;0.57;;;17.30;42.00;;;;;;4994593;28;20301;-42
2022/09/27 12:00:23;;;;;;;1.58;1.02;;;17.30;42.00;;;;;;4994971;28;20176;-42
2022/09/27 12:03:04;;;;;;;1.10;0.68;;;17.30;42.30;;;;;;4995290;28;20170;-42
2022/09/27 12:06:14;;;;;;;1.40;0.70;;;17.40;42.30;;;;;;4994780;28;20750;-42
2022/09/27 12:08:41;;;;;;;1.40;0.85;;;17.60;42.70;;;;;;4995029;28;20720;-42
2022/09/27 12:11:31;;;;;;;2.10;0.85;;;17.50;41.70;;;;;;4994964;28;20192;-42
2022/09/27 12:14:16;;;;;;;1.05;0.60;;;17.70;42.10;;;;;;4994850;28;20176;-42
2022/09/27 12:16:43;;;;;;;1.30;0.70;;;17.70;42.30;;;;;;4994204;28;20762;-42
2022/09/27 12:19:23;;;;;;;1.40;0.90;;;17.80;41.90;;;;;;4994668;28;20721;-41
2022/09/27 12:21:49;;;;;;;1.08;0.60;;;17.70;41.00;;;;;;4994734;28;20238;-42
2022/09/27 12:24:22;;;;;;;1.30;0.65;;;17.50;40.10;;;;;;4994587;28;20195;-42
2022/09/27 12:26:52;;;;;;;1.85;0.90;;;17.50;41.00;;;;;;4994179;28;20262;-42
2022/09/27 12:29:26;;;;;;;3.67;0.93;;;17.60;41.50;;;;;;4994636;28;20172;-42
2022/09/27 12:32:17;;;;;;;1.98;0.80;;;17.60;41.80;;;;;;4994511;28;20571;-42
2022/09/27 12:34:54;;;;;;;1.60;0.68;;;17.80;40.40;;;;;;4994716;28;20163;-42
2022/09/27 12:37:38;;;;;;;1.48;0.68;;;17.90;40.80;;;;;;4993775;28;20206;-42
2022/09/27 12:40:15;;;;;;;1.10;0.80;;;17.90;40.50;;;;;;4993247;28;20171;-42
2022/09/27 12:42:47;;;;;;;1.80;0.82;;;17.80;40.40;;;;;;4994335;28;20175;-42
2022/09/27 12:45:15;;;;;;;1.25;0.63;;;17.80;40.80;;;;;;4993926;28;20171;-42
2022/09/27 12:48:04;;;;;;;1.30;0.93;;;18.00;41.30;;;;;;4993771;28;20207;-42
2022/09/27 12:50:43;;;;;;;1.35;0.90;;;18.10;41.60;;;;;;4994059;28;20202;-41
2022/09/27 12:53:27;;;;;;;1.98;1.05;;;18.10;41.10;;;;;;4994422;28;20164;-42
2022/09/27 12:56:16;;;;;;;1.33;0.82;;;18.50;43.40;;;;;;4993495;28;20564;-42
2022/09/27 12:58:48;;;;;;;1.00;0.55;;;18.80;40.50;;;;;;4994109;28;20274;-42
2022/09/27 13:01:25;;;;;;;1.58;0.85;;;19.00;38.60;;;;;;4993939;28;20159;-42
2022/09/27 13:04:28;;;;;;;1.25;0.70;;;19.10;39.30;;;;;;4993839;28;20175;-42
2022/09/27 13:07:05;;;;;;;1.25;0.50;;;19.10;38.20;;;;;;4993196;28;20195;-42
2022/09/27 13:10:04;;;;;;;1.48;0.70;;;19.00;37.00;;;;;;4993844;28;20193;-42
2022/09/27 13:12:33;;;;;;;1.45;0.80;;;18.90;38.50;;;;;;4993824;28;20179;-42
2022/09/27 13:15:32;;;;;;;1.40;0.60;;;19.00;38.30;;;;;;4993782;28;20190;-42
2022/09/27 13:18:04;;;;;;;13.13;2.67;;;19.10;38.10;;;;;;4990494;28;20211;-42
2022/09/27 13:20:36;;;;;;;1.23;0.60;;;19.10;37.80;;;;;;4993528;28;20163;-42
2022/09/27 13:23:19;;;;;;;1.63;0.82;;;19.20;37.60;;;;;;4993611;28;20544;-42